sensor_id;sensor_type;location;lat;lon;timestamp;P1;durP1;ratioP1;P2;durP2;ratioP2
63189;SDS011;49286;44.460;26.114;2022-11-20T00:02:20;27.23;;;19.13;;
63189;SDS011;49286;44.460;26.114;2022-11-20T00:04:46;27.98;;;18.23;;
63189;SDS011;49286;44.460;26.114;2022-11-20T00:07:11;28.98;;;21.27;;
63189;SDS011;49286;44.460;26.114;2022-11-20T00:09:37;29.05;;;18.38;;
63189;SDS011;49286;44.460;26.114;2022-11-20T00:12:02;29.05;;;18.92;;
63189;SDS011;49286;44.460;26.114;2022-11-20T00:14:28;32.65;;;20.95;;
63189;SDS011;49286;44.460;26.114;2022-11-20T00:16:53;32.03;;;22.58;;
63189;SDS011;49286;44.460;26.114;2022-11-20T00:19:19;27.67;;;20.42;;
63189;SDS011;49286;44.460;26.114;2022-11-20T00:21:44;24.15;;;15.95;;
63189;SDS011;49286;44.460;26.114;2022-11-20T00:24:10;29.35;;;19.48;;
63189;SDS011;49286;44.460;26.114;2022-11-20T00:26:35;26.27;;;19.05;;
63189;SDS011;49286;44.460;26.114;2022-11-20T00:29:01;30.33;;;19.98;;
63189;SDS011;49286;44.460;26.114;2022-11-20T00:31:28;32.83;;;21.67;;
63189;SDS011;49286;44.460;26.114;2022-11-20T00:33:54;32.40;;;20.80;;
63189;SDS011;49286;44.460;26.114;2022-11-20T00:36:21;29.05;;;19.23;;
63189;SDS011;49286;44.460;26.114;2022-11-20T00:38:52;30.42;;;17.98;;
63189;SDS011;49286;44.460;26.114;2022-11-20T00:41:18;33.55;;;22.50;;
63189;SDS011;49286;44.460;26.114;2022-11-20T00:43:44;28.48;;;20.77;;
63189;SDS011;49286;44.460;26.114;2022-11-20T00:46:10;28.88;;;21.23;;
63189;SDS011;49286;44.460;26.114;2022-11-20T00:48:40;26.50;;;19.15;;
63189;SDS011;49286;44.460;26.114;2022-11-20T00:51:06;29.05;;;20.42;;
63189;SDS011;49286;44.460;26.114;2022-11-20T00:53:32;24.45;;;19.40;;
63189;SDS011;49286;44.460;26.114;2022-11-20T00:58:43;33.70;;;22.27;;
63189;SDS011;49286;44.460;26.114;2022-11-20T01:01:12;32.85;;;21.83;;
63189;SDS011;49286;44.460;26.114;2022-11-20T01:03:41;27.90;;;21.33;;
63189;SDS011;49286;44.460;26.114;2022-11-20T01:06:12;27.80;;;21.52;;
63189;SDS011;49286;44.460;26.114;2022-11-20T01:08:39;33.65;;;20.38;;
63189;SDS011;49286;44.460;26.114;2022-11-20T01:11:07;39.42;;;20.98;;
63189;SDS011;49286;44.460;26.114;2022-11-20T01:13:37;33.13;;;20.42;;
63189;SDS011;49286;44.460;26.114;2022-11-20T01:16:16;35.08;;;21.70;;
63189;SDS011;49286;44.460;26.114;2022-11-20T01:18:44;29.30;;;19.25;;
63189;SDS011;49286;44.460;26.114;2022-11-20T01:21:12;41.63;;;22.60;;
63189;SDS011;49286;44.460;26.114;2022-11-20T01:23:41;30.08;;;18.92;;
63189;SDS011;49286;44.460;26.114;2022-11-20T01:26:08;34.35;;;20.88;;
63189;SDS011;49286;44.460;26.114;2022-11-20T01:28:36;38.55;;;23.77;;
63189;SDS011;49286;44.460;26.114;2022-11-20T01:31:10;36.85;;;22.00;;
63189;SDS011;49286;44.460;26.114;2022-11-20T01:33:40;29.48;;;20.63;;
63189;SDS011;49286;44.460;26.114;2022-11-20T01:36:06;35.35;;;22.17;;
63189;SDS011;49286;44.460;26.114;2022-11-20T01:38:32;38.40;;;23.67;;
63189;SDS011;49286;44.460;26.114;2022-11-20T01:40:58;34.53;;;22.75;;
63189;SDS011;49286;44.460;26.114;2022-11-20T01:43:23;32.10;;;21.75;;
63189;SDS011;49286;44.460;26.114;2022-11-20T01:49:14;31.10;;;21.00;;
63189;SDS011;49286;44.460;26.114;2022-11-20T01:51:30;33.58;;;21.75;;
63189;SDS011;49286;44.460;26.114;2022-11-20T01:53:59;34.15;;;17.45;;
63189;SDS011;49286;44.460;26.114;2022-11-20T01:56:29;33.38;;;19.75;;
63189;SDS011;49286;44.460;26.114;2022-11-20T01:58:59;32.53;;;23.50;;
63189;SDS011;49286;44.460;26.114;2022-11-20T02:01:29;28.83;;;19.42;;
63189;SDS011;49286;44.460;26.114;2022-11-20T02:03:54;32.08;;;20.83;;
63189;SDS011;49286;44.460;26.114;2022-11-20T02:09:34;39.28;;;24.92;;
63189;SDS011;49286;44.460;26.114;2022-11-20T02:12:00;28.65;;;19.20;;
63189;SDS011;49286;44.460;26.114;2022-11-20T02:14:25;38.15;;;20.75;;
63189;SDS011;49286;44.460;26.114;2022-11-20T02:16:51;34.85;;;20.70;;
63189;SDS011;49286;44.460;26.114;2022-11-20T02:19:29;32.20;;;20.85;;
63189;SDS011;49286;44.460;26.114;2022-11-20T02:24:27;32.20;;;19.27;;
63189;SDS011;49286;44.460;26.114;2022-11-20T02:26:57;33.25;;;18.52;;
63189;SDS011;49286;44.460;26.114;2022-11-20T02:31:55;25.77;;;17.42;;
63189;SDS011;49286;44.460;26.114;2022-11-20T02:34:23;29.83;;;17.25;;
63189;SDS011;49286;44.460;26.114;2022-11-20T02:36:49;23.67;;;16.80;;
63189;SDS011;49286;44.460;26.114;2022-11-20T02:39:17;27.98;;;17.55;;
63189;SDS011;49286;44.460;26.114;2022-11-20T02:41:45;21.15;;;16.52;;
63189;SDS011;49286;44.460;26.114;2022-11-20T02:44:11;25.23;;;17.20;;
63189;SDS011;49286;44.460;26.114;2022-11-20T02:46:37;26.83;;;19.70;;
63189;SDS011;49286;44.460;26.114;2022-11-20T02:49:03;26.98;;;19.50;;
63189;SDS011;49286;44.460;26.114;2022-11-20T02:51:30;27.60;;;18.70;;
63189;SDS011;49286;44.460;26.114;2022-11-20T02:53:56;27.25;;;18.13;;
63189;SDS011;49286;44.460;26.114;2022-11-20T02:56:22;28.23;;;17.00;;
63189;SDS011;49286;44.460;26.114;2022-11-20T02:58:47;23.35;;;16.45;;
63189;SDS011;49286;44.460;26.114;2022-11-20T03:01:13;43.13;;;19.20;;
63189;SDS011;49286;44.460;26.114;2022-11-20T03:03:39;25.45;;;16.15;;
63189;SDS011;49286;44.460;26.114;2022-11-20T03:06:04;35.08;;;16.95;;
63189;SDS011;49286;44.460;26.114;2022-11-20T03:08:30;27.58;;;15.77;;
63189;SDS011;49286;44.460;26.114;2022-11-20T03:10:55;21.50;;;14.35;;
63189;SDS011;49286;44.460;26.114;2022-11-20T03:13:21;24.92;;;15.25;;
63189;SDS011;49286;44.460;26.114;2022-11-20T03:15:46;24.02;;;14.98;;
63189;SDS011;49286;44.460;26.114;2022-11-20T03:18:12;30.05;;;15.73;;
63189;SDS011;49286;44.460;26.114;2022-11-20T03:20:38;15.20;;;10.77;;
63189;SDS011;49286;44.460;26.114;2022-11-20T03:23:04;21.60;;;13.60;;
63189;SDS011;49286;44.460;26.114;2022-11-20T03:25:30;22.67;;;13.63;;
63189;SDS011;49286;44.460;26.114;2022-11-20T03:27:55;24.95;;;13.10;;
63189;SDS011;49286;44.460;26.114;2022-11-20T03:30:21;17.45;;;12.57;;
63189;SDS011;49286;44.460;26.114;2022-11-20T03:32:46;18.90;;;10.68;;
63189;SDS011;49286;44.460;26.114;2022-11-20T03:35:12;18.77;;;11.80;;
63189;SDS011;49286;44.460;26.114;2022-11-20T03:37:38;22.05;;;11.60;;
63189;SDS011;49286;44.460;26.114;2022-11-20T03:40:03;21.40;;;12.90;;
63189;SDS011;49286;44.460;26.114;2022-11-20T03:42:29;30.25;;;12.50;;
63189;SDS011;49286;44.460;26.114;2022-11-20T03:45:10;23.42;;;10.95;;
63189;SDS011;49286;44.460;26.114;2022-11-20T03:47:35;18.50;;;11.35;;
63189;SDS011;49286;44.460;26.114;2022-11-20T03:50:01;19.35;;;13.25;;
63189;SDS011;49286;44.460;26.114;2022-11-20T03:52:26;22.92;;;10.27;;
63189;SDS011;49286;44.460;26.114;2022-11-20T03:54:52;17.52;;;10.25;;
63189;SDS011;49286;44.460;26.114;2022-11-20T03:57:17;13.68;;;10.23;;
63189;SDS011;49286;44.460;26.114;2022-11-20T03:59:43;16.05;;;10.65;;
63189;SDS011;49286;44.460;26.114;2022-11-20T04:02:08;19.75;;;10.80;;
63189;SDS011;49286;44.460;26.114;2022-11-20T04:04:33;43.00;;;15.20;;
63189;SDS011;49286;44.460;26.114;2022-11-20T04:06:59;13.65;;;8.80;;
63189;SDS011;49286;44.460;26.114;2022-11-20T04:09:24;19.58;;;11.68;;
63189;SDS011;49286;44.460;26.114;2022-11-20T04:11:50;17.35;;;10.43;;
63189;SDS011;49286;44.460;26.114;2022-11-20T04:14:16;14.98;;;9.05;;
63189;SDS011;49286;44.460;26.114;2022-11-20T04:16:42;18.08;;;8.63;;
63189;SDS011;49286;44.460;26.114;2022-11-20T04:19:11;16.73;;;9.35;;
63189;SDS011;49286;44.460;26.114;2022-11-20T04:21:39;16.00;;;8.85;;
63189;SDS011;49286;44.460;26.114;2022-11-20T04:24:05;16.98;;;9.90;;
63189;SDS011;49286;44.460;26.114;2022-11-20T04:26:30;16.55;;;11.25;;
63189;SDS011;49286;44.460;26.114;2022-11-20T04:28:56;18.13;;;8.65;;
63189;SDS011;49286;44.460;26.114;2022-11-20T04:31:23;18.33;;;9.88;;
63189;SDS011;49286;44.460;26.114;2022-11-20T04:33:51;18.17;;;9.15;;
63189;SDS011;49286;44.460;26.114;2022-11-20T04:36:18;25.95;;;11.45;;
63189;SDS011;49286;44.460;26.114;2022-11-20T04:38:45;17.70;;;9.35;;
63189;SDS011;49286;44.460;26.114;2022-11-20T04:41:14;19.17;;;9.57;;
63189;SDS011;49286;44.460;26.114;2022-11-20T04:43:41;16.90;;;10.48;;
63189;SDS011;49286;44.460;26.114;2022-11-20T04:46:06;22.40;;;11.80;;
63189;SDS011;49286;44.460;26.114;2022-11-20T04:48:32;15.18;;;8.77;;
63189;SDS011;49286;44.460;26.114;2022-11-20T04:50:57;43.15;;;11.50;;
63189;SDS011;49286;44.460;26.114;2022-11-20T04:53:27;13.77;;;8.88;;
63189;SDS011;49286;44.460;26.114;2022-11-20T04:55:58;13.10;;;9.10;;
63189;SDS011;49286;44.460;26.114;2022-11-20T04:58:28;17.50;;;9.93;;
63189;SDS011;49286;44.460;26.114;2022-11-20T05:01:00;15.20;;;10.05;;
63189;SDS011;49286;44.460;26.114;2022-11-20T05:03:27;15.20;;;8.90;;
63189;SDS011;49286;44.460;26.114;2022-11-20T05:05:52;16.90;;;8.70;;
63189;SDS011;49286;44.460;26.114;2022-11-20T05:08:18;19.02;;;9.80;;
63189;SDS011;49286;44.460;26.114;2022-11-20T05:10:43;20.63;;;8.88;;
63189;SDS011;49286;44.460;26.114;2022-11-20T05:13:09;18.70;;;10.73;;
63189;SDS011;49286;44.460;26.114;2022-11-20T05:15:34;20.92;;;10.80;;
63189;SDS011;49286;44.460;26.114;2022-11-20T05:17:59;20.05;;;10.70;;
63189;SDS011;49286;44.460;26.114;2022-11-20T05:20:25;17.33;;;9.50;;
63189;SDS011;49286;44.460;26.114;2022-11-20T05:22:50;20.77;;;11.00;;
63189;SDS011;49286;44.460;26.114;2022-11-20T05:25:16;13.75;;;7.57;;
63189;SDS011;49286;44.460;26.114;2022-11-20T05:27:41;15.80;;;8.02;;
63189;SDS011;49286;44.460;26.114;2022-11-20T05:30:07;22.75;;;11.27;;
63189;SDS011;49286;44.460;26.114;2022-11-20T05:32:33;30.50;;;11.43;;
63189;SDS011;49286;44.460;26.114;2022-11-20T05:34:59;13.98;;;10.25;;
63189;SDS011;49286;44.460;26.114;2022-11-20T05:37:24;15.45;;;9.38;;
63189;SDS011;49286;44.460;26.114;2022-11-20T05:39:50;12.95;;;6.78;;
63189;SDS011;49286;44.460;26.114;2022-11-20T05:42:15;14.43;;;8.93;;
63189;SDS011;49286;44.460;26.114;2022-11-20T05:44:57;15.20;;;9.70;;
63189;SDS011;49286;44.460;26.114;2022-11-20T05:47:27;16.85;;;8.75;;
63189;SDS011;49286;44.460;26.114;2022-11-20T05:49:53;20.00;;;10.00;;
63189;SDS011;49286;44.460;26.114;2022-11-20T05:52:19;41.03;;;13.88;;
63189;SDS011;49286;44.460;26.114;2022-11-20T05:54:44;30.95;;;12.27;;
63189;SDS011;49286;44.460;26.114;2022-11-20T05:57:10;15.43;;;9.00;;
63189;SDS011;49286;44.460;26.114;2022-11-20T05:59:35;12.98;;;9.20;;
63189;SDS011;49286;44.460;26.114;2022-11-20T06:02:01;19.85;;;9.00;;
63189;SDS011;49286;44.460;26.114;2022-11-20T06:04:26;17.33;;;8.63;;
63189;SDS011;49286;44.460;26.114;2022-11-20T06:06:51;11.57;;;7.50;;
63189;SDS011;49286;44.460;26.114;2022-11-20T06:09:17;15.18;;;8.80;;
63189;SDS011;49286;44.460;26.114;2022-11-20T06:11:42;13.80;;;8.45;;
63189;SDS011;49286;44.460;26.114;2022-11-20T06:14:08;13.55;;;7.75;;
63189;SDS011;49286;44.460;26.114;2022-11-20T06:16:33;12.63;;;7.78;;
63189;SDS011;49286;44.460;26.114;2022-11-20T06:18:59;17.85;;;9.13;;
63189;SDS011;49286;44.460;26.114;2022-11-20T06:21:24;10.15;;;6.53;;
63189;SDS011;49286;44.460;26.114;2022-11-20T06:23:50;11.88;;;7.53;;
63189;SDS011;49286;44.460;26.114;2022-11-20T06:26:21;22.42;;;9.15;;
63189;SDS011;49286;44.460;26.114;2022-11-20T06:28:48;17.33;;;9.40;;
63189;SDS011;49286;44.460;26.114;2022-11-20T06:31:15;22.80;;;8.13;;
63189;SDS011;49286;44.460;26.114;2022-11-20T06:33:43;17.85;;;6.25;;
63189;SDS011;49286;44.460;26.114;2022-11-20T06:36:10;13.10;;;7.32;;
63189;SDS011;49286;44.460;26.114;2022-11-20T06:38:37;11.60;;;6.15;;
63189;SDS011;49286;44.460;26.114;2022-11-20T06:41:03;8.50;;;5.63;;
63189;SDS011;49286;44.460;26.114;2022-11-20T06:43:35;7.15;;;4.60;;
63189;SDS011;49286;44.460;26.114;2022-11-20T06:46:00;8.82;;;5.30;;
63189;SDS011;49286;44.460;26.114;2022-11-20T06:48:26;10.15;;;6.65;;
63189;SDS011;49286;44.460;26.114;2022-11-20T06:50:52;11.77;;;5.22;;
63189;SDS011;49286;44.460;26.114;2022-11-20T06:53:18;14.38;;;6.63;;
63189;SDS011;49286;44.460;26.114;2022-11-20T06:55:44;7.93;;;5.18;;
63189;SDS011;49286;44.460;26.114;2022-11-20T06:58:11;14.27;;;6.70;;
63189;SDS011;49286;44.460;26.114;2022-11-20T07:00:37;12.60;;;6.80;;
63189;SDS011;49286;44.460;26.114;2022-11-20T07:03:06;34.38;;;9.25;;
63189;SDS011;49286;44.460;26.114;2022-11-20T07:05:33;11.85;;;6.75;;
63189;SDS011;49286;44.460;26.114;2022-11-20T07:07:59;13.75;;;6.97;;
63189;SDS011;49286;44.460;26.114;2022-11-20T07:10:25;7.65;;;4.93;;
63189;SDS011;49286;44.460;26.114;2022-11-20T07:12:51;9.07;;;5.30;;
63189;SDS011;49286;44.460;26.114;2022-11-20T07:15:18;11.57;;;5.75;;
63189;SDS011;49286;44.460;26.114;2022-11-20T07:17:45;18.15;;;5.40;;
63189;SDS011;49286;44.460;26.114;2022-11-20T07:20:11;6.80;;;3.80;;
63189;SDS011;49286;44.460;26.114;2022-11-20T07:22:37;6.68;;;3.80;;
63189;SDS011;49286;44.460;26.114;2022-11-20T07:25:03;7.75;;;5.00;;
63189;SDS011;49286;44.460;26.114;2022-11-20T07:27:29;8.18;;;4.03;;
63189;SDS011;49286;44.460;26.114;2022-11-20T07:29:56;14.68;;;5.65;;
63189;SDS011;49286;44.460;26.114;2022-11-20T07:32:21;12.70;;;5.57;;
63189;SDS011;49286;44.460;26.114;2022-11-20T07:34:47;12.27;;;4.97;;
63189;SDS011;49286;44.460;26.114;2022-11-20T07:37:13;8.05;;;4.80;;
63189;SDS011;49286;44.460;26.114;2022-11-20T07:39:39;19.55;;;5.97;;
63189;SDS011;49286;44.460;26.114;2022-11-20T07:42:05;18.42;;;5.57;;
63189;SDS011;49286;44.460;26.114;2022-11-20T07:44:31;6.63;;;3.63;;
63189;SDS011;49286;44.460;26.114;2022-11-20T07:46:56;10.65;;;5.03;;
63189;SDS011;49286;44.460;26.114;2022-11-20T07:49:22;8.35;;;5.20;;
63189;SDS011;49286;44.460;26.114;2022-11-20T07:51:52;5.25;;;3.05;;
63189;SDS011;49286;44.460;26.114;2022-11-20T07:54:21;8.68;;;4.45;;
63189;SDS011;49286;44.460;26.114;2022-11-20T07:56:47;7.13;;;4.28;;
63189;SDS011;49286;44.460;26.114;2022-11-20T07:59:13;10.38;;;5.45;;
63189;SDS011;49286;44.460;26.114;2022-11-20T08:01:39;11.07;;;6.90;;
63189;SDS011;49286;44.460;26.114;2022-11-20T08:04:05;10.82;;;6.22;;
63189;SDS011;49286;44.460;26.114;2022-11-20T08:06:31;8.20;;;4.38;;
63189;SDS011;49286;44.460;26.114;2022-11-20T08:08:56;10.20;;;5.43;;
63189;SDS011;49286;44.460;26.114;2022-11-20T08:11:22;18.05;;;7.00;;
63189;SDS011;49286;44.460;26.114;2022-11-20T08:14:05;11.40;;;6.88;;
63189;SDS011;49286;44.460;26.114;2022-11-20T08:19:07;8.23;;;5.63;;
63189;SDS011;49286;44.460;26.114;2022-11-20T08:21:33;13.52;;;7.18;;
63189;SDS011;49286;44.460;26.114;2022-11-20T08:23:59;11.77;;;6.75;;
63189;SDS011;49286;44.460;26.114;2022-11-20T08:26:24;14.43;;;8.60;;
63189;SDS011;49286;44.460;26.114;2022-11-20T08:28:56;8.40;;;5.70;;
63189;SDS011;49286;44.460;26.114;2022-11-20T08:31:26;11.23;;;6.13;;
63189;SDS011;49286;44.460;26.114;2022-11-20T08:33:52;10.90;;;6.75;;
63189;SDS011;49286;44.460;26.114;2022-11-20T08:36:19;11.82;;;6.75;;
63189;SDS011;49286;44.460;26.114;2022-11-20T08:38:49;45.38;;;40.88;;
63189;SDS011;49286;44.460;26.114;2022-11-20T08:41:19;13.32;;;9.63;;
63189;SDS011;49286;44.460;26.114;2022-11-20T08:46:23;13.68;;;8.48;;
63189;SDS011;49286;44.460;26.114;2022-11-20T08:48:50;12.35;;;7.47;;
63189;SDS011;49286;44.460;26.114;2022-11-20T08:51:16;12.52;;;6.82;;
63189;SDS011;49286;44.460;26.114;2022-11-20T08:53:42;12.48;;;7.43;;
63189;SDS011;49286;44.460;26.114;2022-11-20T08:56:08;16.63;;;7.78;;
63189;SDS011;49286;44.460;26.114;2022-11-20T08:58:35;16.20;;;10.02;;
63189;SDS011;49286;44.460;26.114;2022-11-20T09:01:01;15.18;;;7.95;;
63189;SDS011;49286;44.460;26.114;2022-11-20T09:03:28;10.38;;;7.22;;
63189;SDS011;49286;44.460;26.114;2022-11-20T09:06:00;11.48;;;6.90;;
63189;SDS011;49286;44.460;26.114;2022-11-20T09:08:27;13.40;;;9.35;;
63189;SDS011;49286;44.460;26.114;2022-11-20T09:10:54;15.32;;;8.73;;
63189;SDS011;49286;44.460;26.114;2022-11-20T09:13:21;13.90;;;10.00;;
63189;SDS011;49286;44.460;26.114;2022-11-20T09:15:52;15.82;;;10.07;;
63189;SDS011;49286;44.460;26.114;2022-11-20T09:18:22;15.43;;;10.27;;
63189;SDS011;49286;44.460;26.114;2022-11-20T09:20:49;20.48;;;9.93;;
63189;SDS011;49286;44.460;26.114;2022-11-20T09:23:14;18.25;;;10.20;;
63189;SDS011;49286;44.460;26.114;2022-11-20T09:25:40;18.65;;;13.07;;
63189;SDS011;49286;44.460;26.114;2022-11-20T09:28:06;16.95;;;11.45;;
63189;SDS011;49286;44.460;26.114;2022-11-20T09:30:31;16.77;;;10.68;;
63189;SDS011;49286;44.460;26.114;2022-11-20T09:32:58;23.00;;;16.38;;
63189;SDS011;49286;44.460;26.114;2022-11-20T09:35:23;22.83;;;17.70;;
63189;SDS011;49286;44.460;26.114;2022-11-20T09:37:49;19.05;;;13.95;;
63189;SDS011;49286;44.460;26.114;2022-11-20T09:40:24;16.17;;;12.38;;
63189;SDS011;49286;44.460;26.114;2022-11-20T09:56:41;22.40;;;14.60;;
63189;SDS011;49286;44.460;26.114;2022-11-20T09:59:26;22.65;;;14.57;;
63189;SDS011;49286;44.460;26.114;2022-11-20T10:01:59;25.80;;;18.88;;
63189;SDS011;49286;44.460;26.114;2022-11-20T10:04:26;36.33;;;25.00;;
63189;SDS011;49286;44.460;26.114;2022-11-20T10:07:00;23.95;;;20.45;;
63189;SDS011;49286;44.460;26.114;2022-11-20T10:09:39;19.23;;;13.25;;
63189;SDS011;49286;44.460;26.114;2022-11-20T10:12:24;21.63;;;16.52;;
63189;SDS011;49286;44.460;26.114;2022-11-20T10:24:00;13.35;;;9.35;;
63189;SDS011;49286;44.460;26.114;2022-11-20T10:29:29;16.48;;;10.43;;
63189;SDS011;49286;44.460;26.114;2022-11-20T10:32:02;14.17;;;9.77;;
63189;SDS011;49286;44.460;26.114;2022-11-20T10:34:57;21.63;;;13.80;;
63189;SDS011;49286;44.460;26.114;2022-11-20T10:37:28;17.75;;;12.00;;
63189;SDS011;49286;44.460;26.114;2022-11-20T10:42:31;21.88;;;14.60;;
63189;SDS011;49286;44.460;26.114;2022-11-20T10:45:13;16.95;;;12.27;;
63189;SDS011;49286;44.460;26.114;2022-11-20T10:47:46;13.88;;;11.15;;
63189;SDS011;49286;44.460;26.114;2022-11-20T10:50:14;18.05;;;10.82;;
63189;SDS011;49286;44.460;26.114;2022-11-20T10:58:20;24.50;;;14.25;;
63189;SDS011;49286;44.460;26.114;2022-11-20T11:01:04;20.02;;;11.98;;
63189;SDS011;49286;44.460;26.114;2022-11-20T11:03:40;17.23;;;12.80;;
63189;SDS011;49286;44.460;26.114;2022-11-20T11:06:10;23.60;;;13.23;;
63189;SDS011;49286;44.460;26.114;2022-11-20T11:08:38;21.73;;;15.50;;
63189;SDS011;49286;44.460;26.114;2022-11-20T11:13:48;19.85;;;14.60;;
63189;SDS011;49286;44.460;26.114;2022-11-20T11:16:21;22.60;;;15.43;;
63189;SDS011;49286;44.460;26.114;2022-11-20T11:18:48;24.23;;;18.75;;
63189;SDS011;49286;44.460;26.114;2022-11-20T11:21:19;37.03;;;23.30;;
63189;SDS011;49286;44.460;26.114;2022-11-20T11:26:22;35.03;;;16.23;;
63189;SDS011;49286;44.460;26.114;2022-11-20T11:31:28;27.95;;;16.15;;
63189;SDS011;49286;44.460;26.114;2022-11-20T11:34:14;34.78;;;18.88;;
63189;SDS011;49286;44.460;26.114;2022-11-20T11:36:41;30.55;;;18.00;;
63189;SDS011;49286;44.460;26.114;2022-11-20T11:39:14;24.17;;;17.38;;
63189;SDS011;49286;44.460;26.114;2022-11-20T11:41:42;21.95;;;15.68;;
63189;SDS011;49286;44.460;26.114;2022-11-20T11:44:18;22.33;;;15.65;;
63189;SDS011;49286;44.460;26.114;2022-11-20T11:47:25;22.35;;;17.75;;
63189;SDS011;49286;44.460;26.114;2022-11-20T11:50:07;32.63;;;22.50;;
63189;SDS011;49286;44.460;26.114;2022-11-20T11:53:01;32.00;;;19.17;;
63189;SDS011;49286;44.460;26.114;2022-11-20T11:55:44;27.88;;;19.75;;
63189;SDS011;49286;44.460;26.114;2022-11-20T12:03:40;26.38;;;16.38;;
63189;SDS011;49286;44.460;26.114;2022-11-20T12:06:15;22.20;;;17.65;;
63189;SDS011;49286;44.460;26.114;2022-11-20T12:16:30;22.67;;;18.08;;
63189;SDS011;49286;44.460;26.114;2022-11-20T12:19:02;29.40;;;21.80;;
63189;SDS011;49286;44.460;26.114;2022-11-20T12:21:36;31.65;;;24.50;;
63189;SDS011;49286;44.460;26.114;2022-11-20T12:27:16;47.40;;;28.17;;
63189;SDS011;49286;44.460;26.114;2022-11-20T12:29:52;29.95;;;19.35;;
63189;SDS011;49286;44.460;26.114;2022-11-20T12:32:37;30.00;;;21.05;;
63189;SDS011;49286;44.460;26.114;2022-11-20T12:40:21;22.45;;;19.35;;
63189;SDS011;49286;44.460;26.114;2022-11-20T12:43:24;21.83;;;17.80;;
63189;SDS011;49286;44.460;26.114;2022-11-20T12:46:26;23.42;;;17.85;;
63189;SDS011;49286;44.460;26.114;2022-11-20T13:02:30;30.05;;;22.73;;
63189;SDS011;49286;44.460;26.114;2022-11-20T13:08:01;31.77;;;20.58;;
63189;SDS011;49286;44.460;26.114;2022-11-20T13:10:35;33.60;;;23.33;;
63189;SDS011;49286;44.460;26.114;2022-11-20T13:16:11;21.63;;;18.08;;
63189;SDS011;49286;44.460;26.114;2022-11-20T13:18:47;25.45;;;19.42;;
63189;SDS011;49286;44.460;26.114;2022-11-20T13:21:14;30.17;;;19.92;;
63189;SDS011;49286;44.460;26.114;2022-11-20T13:23:40;20.60;;;17.92;;
63189;SDS011;49286;44.460;26.114;2022-11-20T13:26:13;21.33;;;15.93;;
63189;SDS011;49286;44.460;26.114;2022-11-20T13:28:41;23.00;;;18.77;;
63189;SDS011;49286;44.460;26.114;2022-11-20T13:31:23;23.65;;;18.13;;
63189;SDS011;49286;44.460;26.114;2022-11-20T13:33:56;26.42;;;19.45;;
63189;SDS011;49286;44.460;26.114;2022-11-20T13:36:24;28.63;;;21.15;;
63189;SDS011;49286;44.460;26.114;2022-11-20T13:38:53;25.95;;;20.20;;
63189;SDS011;49286;44.460;26.114;2022-11-20T13:41:26;23.45;;;17.95;;
63189;SDS011;49286;44.460;26.114;2022-11-20T13:44:15;27.38;;;20.23;;
63189;SDS011;49286;44.460;26.114;2022-11-20T13:46:52;26.95;;;20.50;;
63189;SDS011;49286;44.460;26.114;2022-11-20T13:49:23;30.42;;;21.13;;
63189;SDS011;49286;44.460;26.114;2022-11-20T14:02:44;24.20;;;18.38;;
63189;SDS011;49286;44.460;26.114;2022-11-20T14:05:34;25.55;;;20.15;;
63189;SDS011;49286;44.460;26.114;2022-11-20T14:08:03;26.10;;;20.83;;
63189;SDS011;49286;44.460;26.114;2022-11-20T14:10:30;32.83;;;23.27;;
63189;SDS011;49286;44.460;26.114;2022-11-20T14:12:56;27.45;;;21.30;;
63189;SDS011;49286;44.460;26.114;2022-11-20T14:15:25;28.60;;;23.10;;
63189;SDS011;49286;44.460;26.114;2022-11-20T14:17:55;29.70;;;22.92;;
63189;SDS011;49286;44.460;26.114;2022-11-20T14:20:23;36.50;;;25.65;;
63189;SDS011;49286;44.460;26.114;2022-11-20T14:22:52;34.28;;;25.05;;
63189;SDS011;49286;44.460;26.114;2022-11-20T14:25:19;33.22;;;24.60;;
63189;SDS011;49286;44.460;26.114;2022-11-20T14:27:50;33.97;;;26.90;;
63189;SDS011;49286;44.460;26.114;2022-11-20T14:30:19;34.97;;;24.42;;
63189;SDS011;49286;44.460;26.114;2022-11-20T14:32:54;39.67;;;25.88;;
63189;SDS011;49286;44.460;26.114;2022-11-20T14:35:30;30.48;;;23.95;;
63189;SDS011;49286;44.460;26.114;2022-11-20T14:38:00;33.75;;;24.95;;
63189;SDS011;49286;44.460;26.114;2022-11-20T14:40:31;38.72;;;26.30;;
63189;SDS011;49286;44.460;26.114;2022-11-20T14:43:00;34.78;;;25.45;;
63189;SDS011;49286;44.460;26.114;2022-11-20T14:45:27;28.50;;;22.73;;
63189;SDS011;49286;44.460;26.114;2022-11-20T14:47:54;32.05;;;22.10;;
63189;SDS011;49286;44.460;26.114;2022-11-20T14:50:23;37.25;;;21.73;;
63189;SDS011;49286;44.460;26.114;2022-11-20T14:52:59;32.97;;;22.58;;
63189;SDS011;49286;44.460;26.114;2022-11-20T14:55:30;27.15;;;21.75;;
63189;SDS011;49286;44.460;26.114;2022-11-20T14:57:59;29.83;;;21.05;;
63189;SDS011;49286;44.460;26.114;2022-11-20T15:00:29;30.58;;;21.77;;
63189;SDS011;49286;44.460;26.114;2022-11-20T15:02:55;32.33;;;23.00;;
63189;SDS011;49286;44.460;26.114;2022-11-20T15:05:25;35.30;;;23.83;;
63189;SDS011;49286;44.460;26.114;2022-11-20T15:08:09;26.33;;;21.85;;
63189;SDS011;49286;44.460;26.114;2022-11-20T15:10:36;28.30;;;23.58;;
63189;SDS011;49286;44.460;26.114;2022-11-20T15:13:10;26.98;;;21.15;;
63189;SDS011;49286;44.460;26.114;2022-11-20T15:18:14;34.38;;;25.88;;
63189;SDS011;49286;44.460;26.114;2022-11-20T15:20:42;26.85;;;21.65;;
63189;SDS011;49286;44.460;26.114;2022-11-20T15:23:13;30.80;;;20.35;;
63189;SDS011;49286;44.460;26.114;2022-11-20T15:25:40;28.33;;;19.48;;
63189;SDS011;49286;44.460;26.114;2022-11-20T15:28:40;26.83;;;19.23;;
63189;SDS011;49286;44.460;26.114;2022-11-20T15:30:58;21.35;;;17.13;;
63189;SDS011;49286;44.460;26.114;2022-11-20T15:33:24;22.15;;;18.30;;
63189;SDS011;49286;44.460;26.114;2022-11-20T15:35:51;27.35;;;21.20;;
63189;SDS011;49286;44.460;26.114;2022-11-20T15:38:17;26.52;;;21.00;;
63189;SDS011;49286;44.460;26.114;2022-11-20T15:40:42;26.20;;;19.83;;
63189;SDS011;49286;44.460;26.114;2022-11-20T15:43:08;24.45;;;18.33;;
63189;SDS011;49286;44.460;26.114;2022-11-20T15:45:38;19.50;;;15.85;;
63189;SDS011;49286;44.460;26.114;2022-11-20T15:48:29;18.60;;;15.77;;
63189;SDS011;49286;44.460;26.114;2022-11-20T15:51:00;21.25;;;17.45;;
63189;SDS011;49286;44.460;26.114;2022-11-20T15:53:46;21.92;;;19.00;;
63189;SDS011;49286;44.460;26.114;2022-11-20T15:56:12;20.65;;;18.35;;
63189;SDS011;49286;44.460;26.114;2022-11-20T15:58:38;26.48;;;18.65;;
63189;SDS011;49286;44.460;26.114;2022-11-20T16:01:05;24.40;;;18.27;;
63189;SDS011;49286;44.460;26.114;2022-11-20T16:03:30;28.83;;;21.23;;
63189;SDS011;49286;44.460;26.114;2022-11-20T16:05:56;27.95;;;22.13;;
63189;SDS011;49286;44.460;26.114;2022-11-20T16:08:21;37.83;;;30.90;;
63189;SDS011;49286;44.460;26.114;2022-11-20T16:10:47;30.58;;;21.90;;
63189;SDS011;49286;44.460;26.114;2022-11-20T16:13:17;30.45;;;22.98;;
63189;SDS011;49286;44.460;26.114;2022-11-20T16:16:03;29.05;;;23.40;;
63189;SDS011;49286;44.460;26.114;2022-11-20T16:18:32;28.90;;;22.35;;
63189;SDS011;49286;44.460;26.114;2022-11-20T16:20:58;28.75;;;20.85;;